Terminal Aerodrome Forecast
Issued by NWS

Home | Current Version | Previous Version | Text Only | Print | Product List | Glossary On
Versions: 1 2 3 4 5 6 7 8 9 10 11 12 13
542
FTUS42 KTAE 261120
TAFECP
TAF
KECP 261120Z 2612/2712 VRB03KT P6SM SCT250
     FM261900 18007KT 6SM TSRA BKN040CB
     FM262200 24004KT P6SM SCT040 BKN250=

USA.gov is the U.S. government's official web portal to all federal, state and local government web resources and services.